Time,TemperatureF,DewpointF,PressureIn,WindDirection,WindDirectionDegrees,WindSpeedMPH,WindSpeedGustMPH,Humidity,HourlyPrecipIn,Conditions,Clouds,dailyrainin,SoftwareType,DateUTC
2013-10-02 00:14:00,48.0,46.0,29.94,North,5,0.0,0.0,93,0.00,,,0.01,,2013-10-02 04:14:00,
2013-10-02 00:24:00,48.0,46.0,29.94,North,5,0.0,0.0,93,0.00,,,0.01,,2013-10-02 04:24:00,
2013-10-02 00:44:00,47.0,45.0,29.94,North,5,0.0,1.0,94,0.00,,,0.01,,2013-10-02 04:44:00,
2013-10-02 00:54:00,47.0,45.0,29.94,North,5,0.0,0.0,93,0.00,,,0.01,,2013-10-02 04:54:00,
2013-10-02 01:13:00,46.0,44.0,29.95,North,5,0.0,0.0,93,0.00,,,0.01,,2013-10-02 05:13:00,
2013-10-02 01:23:00,46.0,44.0,29.94,North,5,0.0,0.0,93,0.00,,,0.01,,2013-10-02 05:23:00,
2013-10-02 01:43:00,46.0,44.0,29.94,North,5,0.0,0.0,94,0.00,,,0.01,,2013-10-02 05:43:00,
2013-10-02 01:53:00,46.0,44.0,29.94,North,5,0.0,0.0,94,0.00,,,0.01,,2013-10-02 05:53:00,
2013-10-02 02:12:00,45.0,43.0,29.94,North,5,0.0,1.0,94,0.00,,,0.01,,2013-10-02 06:12:00,
2013-10-02 02:22:00,45.0,43.0,29.94,North,5,0.0,0.0,94,0.00,,,0.01,,2013-10-02 06:22:00,
2013-10-02 02:42:00,45.0,43.0,29.94,North,5,0.0,0.0,94,0.00,,,0.01,,2013-10-02 06:42:00,
2013-10-02 02:52:00,45.0,43.0,29.93,North,5,0.0,1.0,94,0.00,,,0.01,,2013-10-02 06:52:00,
2013-10-02 03:12:00,45.0,44.0,29.94,North,5,0.0,0.0,95,0.00,,,0.01,,2013-10-02 07:12:00,
2013-10-02 03:22:00,45.0,44.0,29.93,North,5,0.0,0.0,95,0.00,,,0.01,,2013-10-02 07:22:00,
2013-10-02 03:42:00,45.0,44.0,29.93,North,5,0.0,0.0,95,0.00,,,0.01,,2013-10-02 07:42:00,
2013-10-02 03:52:00,44.0,43.0,29.93,North,5,0.0,1.0,95,0.00,,,0.01,,2013-10-02 07:52:00,
2013-10-02 04:11:00,44.0,43.0,29.93,North,5,0.0,2.0,95,0.00,,,0.01,,2013-10-02 08:11:00,
2013-10-02 04:22:00,43.0,42.0,29.93,North,5,0.0,1.0,95,0.00,,,0.01,,2013-10-02 08:22:00,
2013-10-02 04:42:00,43.0,42.0,29.93,North,5,0.0,2.0,95,0.00,,,0.01,,2013-10-02 08:42:00,
2013-10-02 04:52:00,43.0,42.0,29.93,North,5,0.0,0.0,95,0.00,,,0.01,,2013-10-02 08:52:00,
2013-10-02 05:11:00,43.0,42.0,29.93,North,5,0.0,0.0,95,0.00,,,0.01,,2013-10-02 09:11:00,
2013-10-02 05:22:00,43.0,42.0,29.93,North,5,0.0,0.0,95,0.00,,,0.01,,2013-10-02 09:22:00,
2013-10-02 05:43:00,42.0,41.0,29.93,North,5,0.0,1.0,96,0.00,,,0.00,,2013-10-02 09:43:00,
2013-10-02 05:54:00,42.0,41.0,29.93,North,5,0.0,1.0,95,0.00,,,0.00,,2013-10-02 09:54:00,
2013-10-02 06:12:00,42.0,41.0,29.93,North,5,0.0,2.0,95,0.00,,,0.00,,2013-10-02 10:12:00,
2013-10-02 06:23:00,42.0,41.0,29.93,SSW,208,0.0,3.0,95,0.00,,,0.00,,2013-10-02 10:23:00,
2013-10-02 06:42:00,42.0,41.0,29.93,South,184,0.0,2.0,95,0.00,,,0.00,,2013-10-02 10:42:00,
2013-10-02 06:52:00,43.0,42.0,29.93,SE,125,0.0,2.0,95,0.00,,,0.00,,2013-10-02 10:52:00,
2013-10-02 07:12:00,43.0,42.0,29.93,SE,125,0.0,2.0,95,0.00,,,0.00,,2013-10-02 11:12:00,
2013-10-02 07:22:00,43.0,42.0,29.93,SE,125,0.0,2.0,95,0.00,,,0.00,,2013-10-02 11:22:00,
2013-10-02 07:52:00,43.0,42.0,29.93,SE,128,0.0,3.0,96,0.00,,,0.00,,2013-10-02 11:52:00,
2013-10-02 08:12:00,44.0,43.0,29.93,SE,131,0.0,2.0,95,0.00,,,0.00,,2013-10-02 12:12:00,
2013-10-02 08:22:00,46.0,45.0,29.93,East,90,0.0,7.0,97,0.00,,,0.00,,2013-10-02 12:22:00,
2013-10-02 08:42:00,49.0,48.0,29.93,SSW,192,0.0,2.0,95,0.00,,,0.00,,2013-10-02 12:42:00,
2013-10-02 08:52:00,52.0,50.0,29.94,SSW,192,0.0,1.0,93,0.00,,,0.00,,2013-10-02 12:52:00,
2013-10-02 09:11:00,55.0,54.0,29.94,NW,323,0.0,2.0,95,0.00,,,0.00,,2013-10-02 13:11:00,
2013-10-02 11:22:00,68.0,57.0,29.93,West,260,4.0,14.0,69,0.00,,,0.00,,2013-10-02 15:22:00,
2013-10-02 11:43:00,69.0,58.0,29.93,NNW,340,5.0,11.0,68,0.00,,,0.00,,2013-10-02 15:43:00,
2013-10-02 11:54:00,69.0,58.0,29.93,NNW,340,5.0,11.0,68,0.00,,,0.00,,2013-10-02 15:54:00,
2013-10-02 12:13:00,71.0,59.0,29.92,NNE,24,5.0,11.0,65,0.00,,,0.00,,2013-10-02 16:13:00,
2013-10-02 12:23:00,71.0,58.0,29.91,North,10,3.0,15.0,64,0.00,,,0.00,,2013-10-02 16:23:00,
2013-10-02 12:52:00,73.0,59.0,29.92,NNE,12,4.0,12.0,62,0.00,,,0.00,,2013-10-02 16:52:00,
2013-10-02 13:12:00,73.0,59.0,29.91,West,279,6.0,16.0,61,0.00,,,0.00,,2013-10-02 17:12:00,
2013-10-02 13:23:00,73.0,59.0,29.91,NNW,341,6.0,16.0,61,0.00,,,0.00,,2013-10-02 17:23:00,
2013-10-02 13:42:00,73.0,59.0,29.92,NW,304,5.0,14.0,62,0.00,,,0.00,,2013-10-02 17:42:00,
2013-10-02 13:52:00,72.0,60.0,29.91,North,355,3.0,12.0,65,0.00,,,0.00,,2013-10-02 17:52:00,
2013-10-02 14:12:00,71.0,59.0,29.91,NNW,338,7.0,16.0,65,0.00,,,0.00,,2013-10-02 18:12:00,
2013-10-02 14:22:00,73.0,60.0,29.91,WNW,298,4.0,13.0,63,0.00,,,0.00,,2013-10-02 18:22:00,
2013-10-02 14:42:00,74.0,59.0,29.90,WNW,285,6.0,14.0,59,0.00,,,0.00,,2013-10-02 18:42:00,
2013-10-02 14:52:00,74.0,58.0,29.90,NNE,16,4.0,13.0,58,0.00,,,0.00,,2013-10-02 18:52:00,
2013-10-02 15:12:00,74.0,57.0,29.90,NW,319,7.0,13.0,55,0.00,,,0.00,,2013-10-02 19:12:00,
2013-10-02 15:22:00,74.0,57.0,29.90,WNW,284,5.0,15.0,55,0.00,,,0.00,,2013-10-02 19:22:00,
2013-10-02 15:42:00,75.0,57.0,29.90,SE,126,5.0,13.0,53,0.00,,,0.00,,2013-10-02 19:42:00,
2013-10-02 15:52:00,74.0,57.0,29.90,WNW,296,4.0,13.0,55,0.00,,,0.00,,2013-10-02 19:52:00,
2013-10-02 16:11:00,74.0,58.0,29.90,WNW,292,3.0,13.0,57,0.00,,,0.00,,2013-10-02 20:11:00,
2013-10-02 16:22:00,74.0,58.0,29.90,WNW,300,3.0,8.0,58,0.00,,,0.00,,2013-10-02 20:22:00,
2013-10-02 16:42:00,74.0,58.0,29.90,NNW,337,3.0,10.0,57,0.00,,,0.00,,2013-10-02 20:42:00,
2013-10-02 16:52:00,74.0,56.0,29.90,ESE,109,3.0,10.0,54,0.00,,,0.00,,2013-10-02 20:52:00,
2013-10-02 17:11:00,73.0,57.0,29.90,North,355,3.0,12.0,57,0.00,,,0.00,,2013-10-02 21:11:00,
2013-10-02 17:22:00,72.0,56.0,29.90,NNW,348,2.0,10.0,58,0.00,,,0.00,,2013-10-02 21:22:00,
2013-10-02 17:44:00,73.0,56.0,29.90,NNW,338,5.0,13.0,55,0.00,,,0.00,,2013-10-02 21:44:00,
2013-10-02 17:54:00,72.0,54.0,29.91,NW,322,2.0,15.0,54,0.00,,,0.00,,2013-10-02 21:54:00,
2013-10-02 18:13:00,71.0,54.0,29.91,NNW,327,2.0,9.0,55,0.00,,,0.00,,2013-10-02 22:13:00,
2013-10-02 18:24:00,70.0,54.0,29.91,NNW,346,2.0,9.0,57,0.00,,,0.00,,2013-10-02 22:24:00,
2013-10-02 18:44:00,69.0,54.0,29.92,NNE,15,2.0,6.0,59,0.00,,,0.00,,2013-10-02 22:44:00,
2013-10-02 18:53:00,68.0,54.0,29.92,NNE,26,3.0,7.0,62,0.00,,,0.00,,2013-10-02 22:53:00,
2013-10-02 19:12:00,67.0,54.0,29.93,North,355,0.0,5.0,64,0.00,,,0.00,,2013-10-02 23:12:00,
2013-10-02 19:22:00,66.0,55.0,29.93,North,360,0.0,4.0,67,0.00,,,0.00,,2013-10-02 23:22:00,
2013-10-02 19:52:00,64.0,55.0,29.94,NNW,330,0.0,4.0,73,0.00,,,0.00,,2013-10-02 23:52:00,
2013-10-02 20:12:00,62.0,54.0,29.95,North,350,0.0,3.0,75,0.00,,,0.00,,2013-10-03 00:12:00,
2013-10-02 20:22:00,61.0,54.0,29.95,North,350,0.0,0.0,78,0.00,,,0.00,,2013-10-03 00:22:00,
2013-10-02 20:42:00,60.0,54.0,29.96,North,350,0.0,3.0,80,0.00,,,0.00,,2013-10-03 00:42:00,
2013-10-02 20:52:00,60.0,54.0,29.96,North,355,0.0,3.0,81,0.00,,,0.00,,2013-10-03 00:52:00,
2013-10-02 21:11:00,60.0,54.0,29.97,NNW,344,1.0,4.0,81,0.00,,,0.00,,2013-10-03 01:11:00,
2013-10-02 21:23:00,60.0,54.0,29.97,NNE,30,0.0,3.0,80,0.00,,,0.00,,2013-10-03 01:23:00,
2013-10-02 21:42:00,60.0,54.0,29.97,NNW,342,1.0,4.0,81,0.00,,,0.00,,2013-10-03 01:42:00,
2013-10-02 21:52:00,60.0,53.0,29.98,WNW,303,2.0,6.0,79,0.00,,,0.00,,2013-10-03 01:52:00,
2013-10-02 22:11:00,60.0,53.0,29.98,WNW,294,1.0,6.0,78,0.00,,,0.00,,2013-10-03 02:11:00,
2013-10-02 22:22:00,60.0,53.0,29.98,NNW,338,2.0,7.0,78,0.00,,,0.00,,2013-10-03 02:22:00,
2013-10-02 23:11:00,59.0,52.0,29.99,NNE,32,3.0,8.0,78,0.00,,,0.00,,2013-10-03 03:11:00,
2013-10-02 23:22:00,60.0,52.0,29.99,NNW,348,4.0,8.0,75,0.00,,,0.00,,2013-10-03 03:22:00,
2013-10-02 23:44:00,60.0,50.0,30.00,North,360,3.0,9.0,69,0.00,,,0.00,,2013-10-03 03:44:00,
2013-10-02 23:54:00,61.0,48.0,30.00,NNW,338,3.0,9.0,62,0.00,,,0.00,,2013-10-03 03:54:00,